createdAt,value
2023-05-17T00:02:23.169Z,76.59
2023-05-17T00:04:53.755Z,77.32
2023-05-17T00:07:26.234Z,77.30
2023-05-17T00:09:56.086Z,77.28
2023-05-17T00:12:25.941Z,77.49
2023-05-17T00:14:55.883Z,77.83
2023-05-17T00:17:26.192Z,77.78
2023-05-17T00:19:56.118Z,77.62
2023-05-17T00:22:28.628Z,77.23
2023-05-17T00:24:58.407Z,77.28
2023-05-17T00:27:28.198Z,77.53
2023-05-17T00:29:58.019Z,78.30
2023-05-17T00:32:27.878Z,78.35
2023-05-17T00:34:57.716Z,78.98
2023-05-17T00:37:30.125Z,78.46
2023-05-17T00:39:59.889Z,79.25
2023-05-17T00:42:29.693Z,79.16
2023-05-17T00:44:59.492Z,78.52
2023-05-17T00:47:29.350Z,79.29
2023-05-17T00:49:59.349Z,79.21
2023-05-17T00:52:31.786Z,79.12
2023-05-17T00:55:02.019Z,79.51
2023-05-17T00:57:32.360Z,79.46
2023-05-17T01:00:05.038Z,79.28
2023-05-17T01:02:35.888Z,78.93
2023-05-17T01:05:05.913Z,79.53
2023-05-17T01:07:38.474Z,79.68
2023-05-17T01:10:09.936Z,79.41
2023-05-17T01:12:50.925Z,80.18
2023-05-17T01:15:26.230Z,80.02
2023-05-17T01:18:09.852Z,80.27
2023-05-17T01:20:43.059Z,79.75
2023-05-17T01:23:30.839Z,79.42
2023-05-17T01:26:07.544Z,80.08
2023-05-17T01:28:41.424Z,80.36
2023-05-17T01:31:14.061Z,80.90
2023-05-17T01:33:44.307Z,80.80
2023-05-17T01:36:14.184Z,80.98
2023-05-17T01:38:44.617Z,80.99
2023-05-17T01:41:21.110Z,80.37
2023-05-17T01:43:58.035Z,81.10
2023-05-17T01:46:31.643Z,81.49
2023-05-17T01:49:11.805Z,81.53
2023-05-17T01:51:47.978Z,81.57
2023-05-17T01:54:23.174Z,81.48
2023-05-17T01:57:00.335Z,82.04
2023-05-17T01:59:34.445Z,82.21
2023-05-17T02:02:08.889Z,81.88
2023-05-17T02:04:39.589Z,82.67
2023-05-17T02:07:09.428Z,82.78
2023-05-17T02:09:39.457Z,83.05
2023-05-17T02:12:10.419Z,83.18
2023-05-17T02:14:42.774Z,83.40
2023-05-17T02:17:13.530Z,83.87
2023-05-17T02:19:43.396Z,83.82
2023-05-17T02:22:13.233Z,84.03
2023-05-17T02:24:43.041Z,84.11
2023-05-17T02:27:14.207Z,84.46
2023-05-17T02:29:46.555Z,84.97
2023-05-17T02:32:16.357Z,84.97
2023-05-17T02:34:49.058Z,85.53
2023-05-17T02:37:18.830Z,85.26
2023-05-17T02:39:48.622Z,85.16
2023-05-17T02:42:18.435Z,84.98
2023-05-17T02:44:53.134Z,85.27
2023-05-17T02:47:23.827Z,85.72
2023-05-17T02:49:53.637Z,85.43
2023-05-17T02:52:23.608Z,85.10
2023-05-17T02:54:53.421Z,85.08
2023-05-17T02:57:23.193Z,84.53
2023-05-17T02:59:55.707Z,85.41
2023-05-17T03:02:25.681Z,85.34
2023-05-17T03:04:55.520Z,84.96
2023-05-17T03:07:25.706Z,85.72
2023-05-17T03:09:56.280Z,84.93
2023-05-17T03:12:29.369Z,84.75
2023-05-17T03:15:02.111Z,84.00
2023-05-17T03:17:32.558Z,84.31
2023-05-17T03:20:02.960Z,84.46
2023-05-17T03:22:33.366Z,84.75
2023-05-17T03:25:03.388Z,85.00
2023-05-17T03:27:33.232Z,84.90
2023-05-17T03:30:06.339Z,85.40
2023-05-17T03:32:37.793Z,84.72
2023-05-17T03:35:08.501Z,84.33
2023-05-17T03:37:40.076Z,83.85
2023-05-17T03:40:11.615Z,83.80
2023-05-17T03:42:41.561Z,83.40
2023-05-17T03:45:14.717Z,82.82
2023-05-17T03:47:44.552Z,83.61
2023-05-17T03:50:15.221Z,83.46
2023-05-17T03:52:46.319Z,82.71
2023-05-17T03:55:16.589Z,83.00
2023-05-17T03:57:46.384Z,82.98
2023-05-17T04:00:22.032Z,82.08
2023-05-17T04:02:52.315Z,82.19
2023-05-17T04:05:23.284Z,82.26
2023-05-17T04:07:53.417Z,82.36
2023-05-17T04:10:23.292Z,81.92
2023-05-17T04:12:54.098Z,81.89
2023-05-17T04:15:26.678Z,82.00
2023-05-17T04:17:56.811Z,82.21
2023-05-17T04:20:27.666Z,81.98
2023-05-17T04:22:57.876Z,81.37
2023-05-17T04:25:31.260Z,81.59
2023-05-17T04:28:01.198Z,81.06
2023-05-17T04:30:33.589Z,81.50
2023-05-17T04:33:04.028Z,81.63
2023-05-17T04:35:33.928Z,81.12
2023-05-17T04:38:03.693Z,81.15
2023-05-17T04:40:33.833Z,81.44
2023-05-17T04:43:04.052Z,80.78
2023-05-17T04:45:37.945Z,80.15
2023-05-17T04:48:08.587Z,80.11
2023-05-17T04:50:38.600Z,79.57
2023-05-17T04:53:09.119Z,80.11
2023-05-17T04:55:40.088Z,80.25
2023-05-17T04:58:10.129Z,79.32
2023-05-17T05:00:43.844Z,79.26
2023-05-17T05:03:14.446Z,79.08
2023-05-17T05:05:44.662Z,79.36
2023-05-17T05:08:15.266Z,78.89
2023-05-17T05:10:46.896Z,78.74
2023-05-17T05:13:19.282Z,78.14
2023-05-17T05:15:51.849Z,78.27
2023-05-17T05:18:21.831Z,77.13
2023-05-17T05:20:52.196Z,75.95
2023-05-17T05:23:22.261Z,76.29
2023-05-17T05:25:52.480Z,75.73
2023-05-17T05:28:22.357Z,76.45
2023-05-17T05:31:00.872Z,75.83
2023-05-17T05:33:37.825Z,73.84
2023-05-17T05:36:08.863Z,74.78
2023-05-17T05:38:39.004Z,75.08
2023-05-17T05:41:09.562Z,73.90
2023-05-17T05:43:40.349Z,72.26
2023-05-17T05:46:13.358Z,73.70
2023-05-17T05:48:45.103Z,73.89
2023-05-17T05:51:15.524Z,72.70
2023-05-17T05:53:46.992Z,71.89
2023-05-17T05:56:16.997Z,71.55
2023-05-17T05:58:46.940Z,72.11
2023-05-17T06:01:19.476Z,71.27
2023-05-17T06:03:49.292Z,70.32
2023-05-17T06:06:19.694Z,70.21
2023-05-17T06:08:49.737Z,70.23
2023-05-17T06:11:21.221Z,69.58
2023-05-17T06:13:50.987Z,68.98
2023-05-17T06:16:23.452Z,69.49
2023-05-17T06:18:53.596Z,69.23
2023-05-17T06:21:23.573Z,68.44
2023-05-17T06:23:53.959Z,68.04
2023-05-17T06:26:23.940Z,67.60
2023-05-17T06:28:53.847Z,66.94
2023-05-17T06:31:26.868Z,67.25
2023-05-17T06:33:56.743Z,65.08
2023-05-17T06:36:27.217Z,62.43
2023-05-17T06:38:57.658Z,62.50
2023-05-17T06:41:27.493Z,60.65
2023-05-17T06:43:57.298Z,61.48
2023-05-17T06:46:29.731Z,59.35
2023-05-17T06:48:59.689Z,58.71
2023-05-17T06:51:29.583Z,56.63
2023-05-17T06:53:59.372Z,56.83
2023-05-17T06:56:29.716Z,57.96
2023-05-17T06:58:59.861Z,56.74
2023-05-17T07:01:32.425Z,58.05
2023-05-17T07:04:02.394Z,58.27
2023-05-17T07:06:32.268Z,57.75
2023-05-17T07:09:02.038Z,55.66
2023-05-17T07:11:31.902Z,56.30
2023-05-17T07:14:01.716Z,57.25
2023-05-17T07:16:34.152Z,57.54
2023-05-17T07:19:04.137Z,57.10
2023-05-17T07:21:34.594Z,55.38
2023-05-17T07:24:04.473Z,55.12
2023-05-17T07:26:34.319Z,54.31
2023-05-17T07:29:04.479Z,55.33
2023-05-17T07:31:37.002Z,54.75
2023-05-17T07:34:08.127Z,55.21
2023-05-17T07:36:38.179Z,55.60
2023-05-17T07:39:08.950Z,54.65
2023-05-17T07:41:39.905Z,53.80
2023-05-17T07:44:09.857Z,54.69
2023-05-17T07:46:42.390Z,53.82
2023-05-17T07:49:12.681Z,54.72
2023-05-17T07:51:43.035Z,55.46
2023-05-17T07:54:12.960Z,55.20
2023-05-17T07:56:42.799Z,54.47
2023-05-17T07:59:12.644Z,54.83
2023-05-17T08:01:45.129Z,54.88
2023-05-17T08:04:14.951Z,54.79
2023-05-17T08:06:45.987Z,53.54
2023-05-17T08:09:16.016Z,53.54
2023-05-17T08:11:46.833Z,53.96
2023-05-17T08:14:17.407Z,53.63
2023-05-17T08:16:51.891Z,53.79
2023-05-17T08:19:22.179Z,55.29
2023-05-17T08:21:52.106Z,54.24
2023-05-17T08:24:22.003Z,54.22
2023-05-17T08:26:51.829Z,53.53
2023-05-17T08:29:21.670Z,55.34
2023-05-17T08:31:54.332Z,53.13
2023-05-17T08:34:26.593Z,53.65
2023-05-17T08:36:56.678Z,53.45
2023-05-17T08:39:26.566Z,53.49
2023-05-17T08:41:59.628Z,54.52
2023-05-17T08:44:31.061Z,53.90
2023-05-17T08:47:04.316Z,54.45
2023-05-17T08:49:34.945Z,53.86
2023-05-17T08:52:10.025Z,53.79
2023-05-17T08:54:39.934Z,52.49
2023-05-17T08:57:10.922Z,52.30
2023-05-17T08:59:42.216Z,52.55
2023-05-17T09:02:17.146Z,53.81
2023-05-17T09:04:47.099Z,54.75
2023-05-17T09:07:17.621Z,55.99
2023-05-17T09:09:47.444Z,56.62
2023-05-17T09:12:17.273Z,55.66
2023-05-17T09:14:47.152Z,55.88
2023-05-17T09:17:23.427Z,55.88
2023-05-17T09:19:53.464Z,54.80
2023-05-17T09:22:23.526Z,52.92
2023-05-17T09:24:53.591Z,52.14
2023-05-17T09:27:23.385Z,51.74
2023-05-17T09:29:53.223Z,51.58
2023-05-17T09:32:25.912Z,51.55
2023-05-17T09:34:56.372Z,52.39
2023-05-17T09:37:26.378Z,52.60
2023-05-17T09:39:58.079Z,53.28
2023-05-17T09:42:29.248Z,53.92
2023-05-17T09:45:01.923Z,53.67
2023-05-17T09:47:35.765Z,53.17
2023-05-17T09:50:06.575Z,52.03
2023-05-17T09:52:40.253Z,51.53
2023-05-17T09:55:13.266Z,53.66
2023-05-17T09:57:43.872Z,53.27
2023-05-17T10:00:15.154Z,52.30
2023-05-17T10:02:51.142Z,51.85
2023-05-17T10:05:21.870Z,51.87
2023-05-17T10:07:53.467Z,51.81
2023-05-17T10:10:23.658Z,51.45
2023-05-17T10:12:54.274Z,52.63
2023-05-17T10:15:24.513Z,52.48
2023-05-17T10:17:57.481Z,52.61
2023-05-17T10:20:27.531Z,52.88
2023-05-17T10:22:58.942Z,51.50
2023-05-17T10:25:29.092Z,52.66
2023-05-17T10:28:00.064Z,52.19
2023-05-17T10:30:31.885Z,53.19
2023-05-17T10:33:05.786Z,50.45
2023-05-17T10:35:37.328Z,50.60
2023-05-17T10:38:08.395Z,49.32
2023-05-17T10:40:39.778Z,48.37
2023-05-17T10:43:12.382Z,47.94
2023-05-17T10:45:44.201Z,48.57
2023-05-17T10:48:19.022Z,49.88
2023-05-17T10:51:00.652Z,49.28
2023-05-17T10:53:30.952Z,48.68
2023-05-17T10:56:01.015Z,49.31
2023-05-17T10:58:31.848Z,48.83
2023-05-17T11:01:01.840Z,48.17
2023-05-17T11:03:34.817Z,48.13
2023-05-17T11:06:25.280Z,46.68
2023-05-17T11:09:16.756Z,47.23
2023-05-17T11:12:08.408Z,47.63
2023-05-17T11:14:51.995Z,47.46
2023-05-17T11:17:23.403Z,46.59
2023-05-17T11:20:06.216Z,46.58
2023-05-17T11:22:42.472Z,46.49
2023-05-17T11:25:14.929Z,48.61
2023-05-17T11:27:49.222Z,48.25
2023-05-17T11:30:21.726Z,48.71
2023-05-17T11:32:55.468Z,48.69
2023-05-17T11:35:31.567Z,47.79
2023-05-17T11:38:18.279Z,47.99
2023-05-17T11:40:49.492Z,48.55
2023-05-17T11:43:22.048Z,48.46
2023-05-17T11:45:53.854Z,48.33
2023-05-17T11:48:26.043Z,49.11
2023-05-17T11:51:01.912Z,49.71
2023-05-17T11:53:34.487Z,49.01
2023-05-17T11:56:06.867Z,49.84
2023-05-17T11:58:38.036Z,50.68
2023-05-17T12:01:09.235Z,51.76
2023-05-17T12:03:39.087Z,51.23
2023-05-17T12:06:13.314Z,50.66
2023-05-17T12:08:47.203Z,50.28
2023-05-17T12:11:19.738Z,50.32
2023-05-17T12:13:52.171Z,50.98
2023-05-17T12:16:25.139Z,50.47
2023-05-17T12:18:55.483Z,49.72
2023-05-17T12:21:28.003Z,50.04
2023-05-17T12:23:57.849Z,50.57
2023-05-17T12:26:27.727Z,51.00
2023-05-17T12:28:59.134Z,50.88
2023-05-17T12:31:32.287Z,49.92
2023-05-17T12:34:03.088Z,50.08
2023-05-17T12:36:37.491Z,49.73
2023-05-17T12:39:10.054Z,49.06
2023-05-17T12:41:41.174Z,49.21
2023-05-17T12:44:15.524Z,50.12
2023-05-17T12:46:50.662Z,48.99
2023-05-17T12:49:21.192Z,48.88
2023-05-17T12:51:53.784Z,49.18
2023-05-17T12:54:31.340Z,47.88
2023-05-17T12:57:01.206Z,48.74
2023-05-17T12:59:36.571Z,47.20
2023-05-17T13:02:06.883Z,47.02
2023-05-17T13:04:39.097Z,47.70
2023-05-17T13:07:11.689Z,48.48
2023-05-17T13:09:49.734Z,48.00
2023-05-17T13:12:23.349Z,48.03
2023-05-17T13:14:55.083Z,48.21
2023-05-17T13:17:28.585Z,46.66
2023-05-17T13:19:58.758Z,47.50
2023-05-17T13:22:31.495Z,47.14
2023-05-17T13:25:01.354Z,46.46
2023-05-17T13:27:31.480Z,47.69
2023-05-17T13:30:01.390Z,47.70
2023-05-17T13:32:31.922Z,48.22
2023-05-17T13:35:02.274Z,47.42
2023-05-17T13:37:34.741Z,47.70
2023-05-17T13:40:04.666Z,48.21
2023-05-17T13:42:34.913Z,48.15
2023-05-17T13:45:04.799Z,48.19
2023-05-17T13:47:37.917Z,47.87
2023-05-17T13:50:08.736Z,48.32
2023-05-17T13:52:41.306Z,48.02
2023-05-17T13:55:11.795Z,48.31
2023-05-17T13:57:42.483Z,48.60
2023-05-17T14:00:13.825Z,48.44
2023-05-17T14:02:49.134Z,47.97
2023-05-17T14:05:19.322Z,48.52
2023-05-17T14:07:51.735Z,49.84
2023-05-17T14:10:21.631Z,50.16
2023-05-17T14:12:51.547Z,51.75
2023-05-17T14:15:22.056Z,52.87
2023-05-17T14:17:52.734Z,50.45
2023-05-17T14:20:22.598Z,50.17
2023-05-17T14:22:55.074Z,49.92
2023-05-17T14:25:25.428Z,49.97
2023-05-17T14:27:55.271Z,48.54
2023-05-17T14:30:25.310Z,49.14
2023-05-17T14:32:55.176Z,48.61
2023-05-17T14:35:25.115Z,48.38
2023-05-17T14:37:57.502Z,47.14
2023-05-17T14:40:27.543Z,48.47
2023-05-17T14:42:58.455Z,46.90
2023-05-17T14:45:28.268Z,48.10
2023-05-17T14:47:58.124Z,49.73
2023-05-17T14:50:28.116Z,49.20
2023-05-17T14:53:00.676Z,49.36
2023-05-17T14:55:30.892Z,48.33
2023-05-17T14:58:02.062Z,47.85
2023-05-17T15:00:31.891Z,48.00
2023-05-17T15:03:01.874Z,49.79
2023-05-17T15:05:32.612Z,48.63
2023-05-17T15:08:05.404Z,48.65
2023-05-17T15:10:35.661Z,49.16
2023-05-17T15:13:05.489Z,48.99
2023-05-17T15:15:36.872Z,49.57
2023-05-17T15:18:06.914Z,50.45
2023-05-17T15:20:39.681Z,49.60
2023-05-17T15:23:12.302Z,49.27
2023-05-17T15:25:42.183Z,48.92
2023-05-17T15:28:12.360Z,48.70
2023-05-17T15:30:42.319Z,48.76
2023-05-17T15:33:12.510Z,48.61
2023-05-17T15:35:43.359Z,48.71
2023-05-17T15:38:15.837Z,48.54
2023-05-17T15:40:45.646Z,48.69
2023-05-17T15:43:15.459Z,49.36
2023-05-17T15:45:45.238Z,48.00
2023-05-17T15:48:15.298Z,46.20
2023-05-17T15:50:45.112Z,48.59
2023-05-17T15:53:17.615Z,48.48
2023-05-17T15:55:50.896Z,48.32
2023-05-17T15:58:20.897Z,49.57
2023-05-17T16:00:50.966Z,49.58
2023-05-17T16:03:20.842Z,50.26
2023-05-17T16:05:50.903Z,50.76
2023-05-17T16:08:23.575Z,50.37
2023-05-17T16:10:53.383Z,50.03
2023-05-17T16:13:23.161Z,50.81
2023-05-17T16:15:52.961Z,50.69
2023-05-17T16:18:22.817Z,51.29
2023-05-17T16:21:00.261Z,50.67
2023-05-17T16:23:32.921Z,51.24
2023-05-17T16:26:03.032Z,51.60
2023-05-17T16:28:34.777Z,51.79
2023-05-17T16:31:06.293Z,51.57
2023-05-17T16:33:36.151Z,51.90
2023-05-17T16:36:06.797Z,51.48
2023-05-17T16:38:39.248Z,50.54
2023-05-17T16:41:09.059Z,51.21
2023-05-17T16:43:39.015Z,51.60
2023-05-17T16:46:08.838Z,51.61
2023-05-17T16:48:38.680Z,51.26
2023-05-17T16:51:08.719Z,51.77
2023-05-17T16:53:41.165Z,52.10
2023-05-17T16:56:10.932Z,52.67
2023-05-17T16:58:40.683Z,52.16
2023-05-17T17:01:10.522Z,52.08
2023-05-17T17:03:40.430Z,52.61
2023-05-17T17:06:10.390Z,52.45
2023-05-17T17:08:42.800Z,52.12
2023-05-17T17:11:12.590Z,52.72
2023-05-17T17:13:42.452Z,52.02
2023-05-17T17:16:12.287Z,53.81
2023-05-17T17:18:42.147Z,52.30
2023-05-17T17:21:11.983Z,53.02
2023-05-17T17:23:44.603Z,52.66
2023-05-17T17:26:15.569Z,53.16
2023-05-17T17:28:45.588Z,53.64
2023-05-17T17:31:15.343Z,54.48
2023-05-17T17:33:45.184Z,54.54
2023-05-17T17:36:15.016Z,54.44
2023-05-17T17:38:47.408Z,52.97
2023-05-17T17:41:17.216Z,53.14
2023-05-17T17:43:47.647Z,53.00
2023-05-17T17:46:17.415Z,53.25
2023-05-17T17:48:47.191Z,53.15
2023-05-17T17:51:16.981Z,53.28
2023-05-17T17:53:49.349Z,53.74
2023-05-17T17:56:19.132Z,54.11
2023-05-17T17:58:49.212Z,53.27
2023-05-17T18:01:19.198Z,53.85
2023-05-17T18:03:49.008Z,54.39
2023-05-17T18:06:19.682Z,54.75
2023-05-17T18:08:52.052Z,55.25
2023-05-17T18:11:21.869Z,55.11
2023-05-17T18:13:51.839Z,55.54
2023-05-17T18:16:21.673Z,55.46
2023-05-17T18:18:51.597Z,55.96
2023-05-17T18:21:21.785Z,56.46
2023-05-17T18:23:54.228Z,56.72
2023-05-17T18:26:24.283Z,57.41
2023-05-17T18:28:54.162Z,57.58
2023-05-17T18:31:23.975Z,57.61
2023-05-17T18:33:56.308Z,57.76
2023-05-17T18:36:27.801Z,58.03
2023-05-17T18:39:01.064Z,56.97
2023-05-17T18:41:31.433Z,57.95
2023-05-17T18:44:04.300Z,58.49
2023-05-17T18:46:34.368Z,58.36
2023-05-17T18:49:04.409Z,58.63
2023-05-17T18:51:34.344Z,59.02
2023-05-17T18:54:06.877Z,57.03
2023-05-17T18:56:36.708Z,58.79
2023-05-17T18:59:06.585Z,59.66
2023-05-17T19:01:36.958Z,60.18
2023-05-17T19:04:06.885Z,60.78
2023-05-17T19:06:36.711Z,61.14
2023-05-17T19:09:09.190Z,61.30
2023-05-17T19:11:39.074Z,61.33
2023-05-17T19:14:08.885Z,61.50
2023-05-17T19:16:39.288Z,61.94
2023-05-17T19:19:09.426Z,62.12
2023-05-17T19:21:39.273Z,61.81
2023-05-17T19:24:11.805Z,61.48
2023-05-17T19:26:41.755Z,61.88
2023-05-17T19:29:11.517Z,62.12
2023-05-17T19:31:41.332Z,62.40
2023-05-17T19:34:11.210Z,62.02
2023-05-17T19:36:40.994Z,61.88
2023-05-17T19:39:13.426Z,61.05
2023-05-17T19:41:43.222Z,61.71
2023-05-17T19:44:13.075Z,62.39
2023-05-17T19:46:43.036Z,62.79
2023-05-17T19:49:12.826Z,62.89
2023-05-17T19:51:42.585Z,62.98
2023-05-17T19:54:15.090Z,63.36
2023-05-17T19:56:45.011Z,64.36
2023-05-17T19:59:14.818Z,64.56
2023-05-17T20:01:44.620Z,64.62
2023-05-17T20:04:14.728Z,64.60
2023-05-17T20:06:44.566Z,64.44
2023-05-17T20:09:17.017Z,64.57
2023-05-17T20:11:46.916Z,64.38
2023-05-17T20:14:16.700Z,64.43
2023-05-17T20:16:46.586Z,64.83
2023-05-17T20:19:16.797Z,64.80
2023-05-17T20:21:46.754Z,65.16
2023-05-17T20:24:19.619Z,64.79
2023-05-17T20:26:49.585Z,64.96
2023-05-17T20:29:19.531Z,65.34
2023-05-17T20:31:49.416Z,65.01
2023-05-17T20:34:19.377Z,65.17
2023-05-17T20:36:49.278Z,64.88
2023-05-17T20:39:22.320Z,64.78
2023-05-17T20:41:52.554Z,65.54
2023-05-17T20:44:24.225Z,66.25
2023-05-17T20:46:54.373Z,66.61
2023-05-17T20:49:24.236Z,66.91
2023-05-17T20:51:54.025Z,67.70
2023-05-17T20:54:27.807Z,67.75
2023-05-17T20:56:57.589Z,67.51
2023-05-17T20:59:27.579Z,68.00
2023-05-17T21:01:57.652Z,67.94
2023-05-17T21:04:27.569Z,68.08
2023-05-17T21:06:58.243Z,67.80
2023-05-17T21:09:30.662Z,68.57
2023-05-17T21:12:00.453Z,68.07
2023-05-17T21:14:30.270Z,68.19
2023-05-17T21:17:00.107Z,68.90
2023-05-17T21:19:29.951Z,69.10
2023-05-17T21:21:59.767Z,69.16
2023-05-17T21:24:32.186Z,69.20
2023-05-17T21:27:02.275Z,69.79
2023-05-17T21:29:32.147Z,69.65
2023-05-17T21:32:01.941Z,70.23
2023-05-17T21:34:31.730Z,68.96
2023-05-17T21:37:01.641Z,67.03
2023-05-17T21:39:33.997Z,67.91
2023-05-17T21:42:03.832Z,67.92
2023-05-17T21:44:33.626Z,67.94
2023-05-17T21:47:03.680Z,68.10
2023-05-17T21:49:33.561Z,67.95
2023-05-17T21:52:03.410Z,67.95
2023-05-17T21:54:35.926Z,68.24
2023-05-17T21:57:05.816Z,68.11
2023-05-17T21:59:36.446Z,68.22
2023-05-17T22:02:07.005Z,68.88
2023-05-17T22:04:38.408Z,69.71
2023-05-17T22:07:08.803Z,69.46
2023-05-17T22:09:41.221Z,69.35
2023-05-17T22:12:12.384Z,69.79
2023-05-17T22:14:44.666Z,69.59
2023-05-17T22:17:15.255Z,69.90
2023-05-17T22:19:45.587Z,69.73
2023-05-17T22:22:15.534Z,69.55
2023-05-17T22:24:47.940Z,70.46
2023-05-17T22:27:17.751Z,70.05
2023-05-17T22:29:47.531Z,70.28
2023-05-17T22:32:17.728Z,70.16
2023-05-17T22:34:47.578Z,69.96
2023-05-17T22:37:17.767Z,70.17
2023-05-17T22:39:50.256Z,69.95
2023-05-17T22:42:20.199Z,70.45
2023-05-17T22:44:50.024Z,71.07
2023-05-17T22:47:23.128Z,71.67
2023-05-17T22:49:53.590Z,71.79
2023-05-17T22:52:23.348Z,72.38
2023-05-17T22:54:55.811Z,72.80
2023-05-17T22:57:25.856Z,72.68
2023-05-17T22:59:55.628Z,72.08
2023-05-17T23:02:25.432Z,71.64
2023-05-17T23:04:55.884Z,71.55
2023-05-17T23:07:27.935Z,71.55
2023-05-17T23:10:00.279Z,71.38
2023-05-17T23:12:31.672Z,72.04
2023-05-17T23:15:01.525Z,72.62
2023-05-17T23:17:34.155Z,72.06
2023-05-17T23:20:07.100Z,71.87
2023-05-17T23:22:36.953Z,71.99
2023-05-17T23:25:09.893Z,71.42
2023-05-17T23:27:39.664Z,71.88
2023-05-17T23:30:10.930Z,72.02
2023-05-17T23:32:42.555Z,72.32
2023-05-17T23:35:12.583Z,72.84
2023-05-17T23:37:42.384Z,72.73
2023-05-17T23:40:16.842Z,73.18
2023-05-17T23:42:46.742Z,72.66
2023-05-17T23:45:16.564Z,73.08
2023-05-17T23:47:47.904Z,73.68
2023-05-17T23:50:18.229Z,73.83
2023-05-17T23:52:48.041Z,74.20
2023-05-17T23:55:22.363Z,74.23
2023-05-17T23:57:52.468Z,73.54
